createdAt,value
2019-03-04T00:01:31.484Z,0.97
2019-03-04T00:04:18.023Z,0.90
2019-03-04T00:07:04.465Z,0.90
2019-03-04T00:09:50.922Z,1.00
2019-03-04T00:12:37.418Z,0.90
2019-03-04T00:15:24.416Z,1.00
2019-03-04T00:18:10.630Z,1.10
2019-03-04T00:20:57.248Z,0.77
2019-03-04T00:23:43.317Z,0.83
2019-03-04T00:26:29.656Z,1.13
2019-03-04T00:29:16.135Z,0.90
2019-03-04T00:32:02.339Z,0.73
2019-03-04T00:34:48.937Z,0.90
2019-03-04T00:37:35.275Z,1.00
2019-03-04T00:40:21.509Z,1.00
2019-03-04T00:43:07.944Z,0.80
2019-03-04T00:45:54.272Z,0.80
2019-03-04T00:48:40.590Z,1.23
2019-03-04T00:51:27.052Z,0.70
2019-03-04T00:54:16.205Z,0.90
2019-03-04T00:57:02.745Z,1.00
2019-03-04T00:59:48.981Z,1.00
2019-03-04T01:02:35.428Z,0.80
2019-03-04T01:05:21.687Z,0.87
2019-03-04T01:08:08.212Z,0.90
2019-03-04T01:10:54.510Z,0.90
2019-03-04T01:13:40.900Z,1.03
2019-03-04T01:16:26.872Z,1.00
2019-03-04T01:19:13.248Z,0.93
2019-03-04T01:21:59.371Z,0.80
2019-03-04T01:24:45.847Z,0.73
2019-03-04T01:27:32.208Z,1.37
2019-03-04T01:30:22.524Z,0.87
2019-03-04T01:33:08.600Z,1.00
2019-03-04T01:35:55.002Z,1.23
2019-03-04T01:38:41.468Z,1.00
2019-03-04T01:41:27.875Z,0.80
2019-03-04T01:44:14.265Z,1.03
2019-03-04T01:47:00.755Z,1.20
2019-03-04T01:49:47.107Z,1.10
2019-03-04T01:52:33.503Z,1.00
2019-03-04T01:55:19.967Z,0.90
2019-03-04T01:58:06.324Z,1.00
2019-03-04T02:00:52.585Z,0.90
2019-03-04T02:03:39.045Z,1.00
2019-03-04T02:06:25.590Z,1.00
2019-03-04T02:09:12.192Z,0.80
2019-03-04T02:11:58.142Z,0.83
2019-03-04T02:14:44.729Z,1.03
2019-03-04T02:17:31.011Z,1.10
2019-03-04T02:20:17.590Z,0.83
2019-03-04T02:23:03.862Z,1.00
2019-03-04T02:26:28.748Z,0.90
2019-03-04T02:29:14.907Z,0.90
2019-03-04T02:32:01.308Z,1.10
2019-03-04T02:34:47.951Z,1.20
2019-03-04T02:37:34.296Z,0.93
2019-03-04T02:40:20.613Z,0.97
2019-03-04T02:43:06.989Z,0.87
2019-03-04T02:45:53.287Z,0.90
2019-03-04T02:48:39.817Z,1.07
2019-03-04T02:51:26.130Z,1.00
2019-03-04T02:54:12.309Z,0.73
2019-03-04T02:56:58.701Z,1.10
2019-03-04T02:59:45.070Z,0.90
2019-03-04T03:02:31.333Z,0.90
2019-03-04T03:05:17.801Z,0.80
2019-03-04T03:08:04.153Z,0.70
2019-03-04T03:10:50.536Z,0.90
2019-03-04T03:13:37.062Z,1.03
2019-03-04T03:16:23.251Z,1.00
2019-03-04T03:19:09.651Z,0.93
2019-03-04T03:21:56.231Z,1.27
2019-03-04T03:24:42.485Z,1.00
2019-03-04T03:27:28.397Z,0.77
2019-03-04T03:30:15.041Z,0.93
2019-03-04T03:33:01.309Z,1.30
2019-03-04T03:35:47.896Z,1.00
2019-03-04T03:38:34.212Z,0.90
2019-03-04T03:41:20.647Z,1.10
2019-03-04T03:44:07.117Z,0.83
2019-03-04T03:46:53.489Z,1.30
2019-03-04T03:49:40.200Z,1.10
2019-03-04T03:52:26.217Z,1.00
2019-03-04T03:55:12.936Z,0.80
2019-03-04T03:57:58.859Z,0.80
2019-03-04T04:00:45.354Z,0.93
2019-03-04T04:03:31.724Z,0.80
2019-03-04T04:06:17.985Z,1.27
2019-03-04T04:09:05.240Z,1.00
2019-03-04T04:11:51.363Z,1.33
2019-03-04T04:14:37.740Z,0.87
2019-03-04T04:17:24.239Z,1.07
2019-03-04T04:20:10.593Z,1.13
2019-03-04T04:22:56.906Z,0.80
2019-03-04T04:25:43.353Z,0.80
2019-03-04T04:28:30.864Z,0.93
2019-03-04T04:31:16.966Z,1.37
2019-03-04T04:34:03.332Z,1.33
2019-03-04T04:36:49.611Z,1.20
2019-03-04T04:39:36.044Z,1.30
2019-03-04T04:42:22.668Z,1.37
2019-03-04T04:45:09.178Z,1.17
2019-03-04T04:47:55.193Z,1.23
2019-03-04T04:50:41.456Z,1.50
2019-03-04T04:53:27.951Z,1.00
2019-03-04T04:56:13.873Z,1.30
2019-03-04T04:59:00.125Z,1.40
2019-03-04T05:01:46.376Z,1.40
2019-03-04T05:04:32.888Z,1.20
2019-03-04T05:07:19.257Z,1.20
2019-03-04T05:10:09.145Z,1.17
2019-03-04T05:12:55.291Z,1.60
2019-03-04T05:15:41.799Z,1.30
2019-03-04T05:18:28.353Z,1.20
2019-03-04T05:21:14.809Z,1.40
2019-03-04T05:24:04.116Z,1.40
2019-03-04T05:26:50.438Z,1.20
2019-03-04T05:29:38.300Z,1.00
2019-03-04T05:32:24.797Z,1.20
2019-03-04T05:35:11.101Z,1.10
2019-03-04T05:37:57.461Z,1.20
2019-03-04T05:40:44.107Z,1.27
2019-03-04T05:43:30.334Z,1.00
2019-03-04T05:46:16.652Z,1.20
2019-03-04T05:49:03.382Z,0.90
2019-03-04T05:51:49.460Z,1.00
2019-03-04T05:54:36.144Z,1.20
2019-03-04T05:57:23.408Z,1.17
2019-03-04T06:00:17.352Z,1.03
2019-03-04T06:03:03.715Z,1.00
2019-03-04T06:05:50.191Z,0.97
2019-03-04T06:08:36.588Z,1.00
2019-03-04T06:11:25.654Z,1.13
2019-03-04T06:14:11.652Z,1.07
2019-03-04T06:16:58.120Z,1.50
2019-03-04T06:19:44.453Z,1.00
2019-03-04T06:22:31.003Z,0.83
2019-03-04T06:25:19.721Z,0.90
2019-03-04T06:28:05.940Z,1.00
2019-03-04T06:30:52.323Z,1.07
2019-03-04T06:33:38.684Z,1.00
2019-03-04T06:36:26.776Z,0.97
2019-03-04T06:39:13.023Z,0.90
2019-03-04T06:41:59.201Z,1.10
2019-03-04T06:44:45.843Z,1.10
2019-03-04T06:47:32.076Z,1.00
2019-03-04T06:50:54.944Z,0.90
2019-03-04T06:54:11.951Z,0.70
2019-03-04T06:57:01.929Z,0.87
2019-03-04T07:00:26.980Z,1.00
2019-03-04T07:03:36.833Z,0.87
2019-03-04T07:06:23.377Z,1.00
2019-03-04T07:09:17.726Z,1.10
2019-03-04T07:12:04.059Z,0.90
2019-03-04T07:14:50.429Z,1.00
2019-03-04T07:17:37.009Z,0.83
2019-03-04T07:20:23.342Z,0.80
2019-03-04T07:23:09.639Z,0.90
2019-03-04T07:25:56.194Z,0.77
2019-03-04T07:28:42.254Z,0.83
2019-03-04T07:31:28.556Z,0.90
2019-03-04T07:34:15.124Z,1.10
2019-03-04T07:37:01.457Z,1.10
2019-03-04T07:39:47.788Z,0.90
2019-03-04T07:42:34.359Z,1.10
2019-03-04T07:45:20.649Z,0.77
2019-03-04T07:48:06.967Z,0.90
2019-03-04T07:50:53.361Z,0.90
2019-03-04T07:53:46.344Z,0.80
2019-03-04T07:56:27.728Z,0.90
2019-03-04T07:59:13.884Z,0.77
2019-03-04T08:02:00.196Z,1.00
2019-03-04T08:04:46.539Z,0.97
2019-03-04T08:07:37.557Z,1.03
2019-03-04T08:11:03.164Z,1.00
2019-03-04T08:13:53.534Z,0.97
2019-03-04T08:16:39.872Z,0.80
2019-03-04T08:19:26.231Z,1.03
2019-03-04T08:22:12.266Z,0.97
2019-03-04T08:24:58.541Z,0.80
2019-03-04T08:27:44.539Z,0.93
2019-03-04T08:30:30.944Z,1.00
2019-03-04T08:33:17.214Z,0.73
2019-03-04T08:36:03.597Z,0.80
2019-03-04T08:38:50.104Z,0.97
2019-03-04T08:41:36.403Z,0.93
2019-03-04T08:44:23.151Z,0.87
2019-03-04T08:47:09.616Z,1.00
2019-03-04T08:49:55.509Z,0.83
2019-03-04T08:52:41.964Z,0.90
2019-03-04T08:55:28.333Z,0.80
2019-03-04T08:58:34.472Z,0.67
2019-03-04T09:01:20.805Z,0.80
2019-03-04T09:04:07.249Z,0.80
2019-03-04T09:06:53.481Z,0.90
2019-03-04T09:09:39.800Z,0.83
2019-03-04T09:12:26.272Z,0.77
2019-03-04T09:15:12.953Z,0.93
2019-03-04T09:17:59.510Z,0.90
2019-03-04T09:20:46.428Z,0.80
2019-03-04T09:23:32.679Z,0.83
2019-03-04T09:26:19.085Z,0.70
2019-03-04T09:29:05.599Z,0.77
2019-03-04T09:31:51.966Z,0.77
2019-03-04T09:34:38.311Z,0.77
2019-03-04T09:37:24.728Z,0.67
2019-03-04T09:40:13.170Z,1.00
2019-03-04T09:42:59.586Z,0.73
2019-03-04T09:45:45.930Z,0.70
2019-03-04T09:48:33.893Z,0.67
2019-03-04T09:51:24.433Z,0.60
2019-03-04T09:54:08.128Z,0.90
2019-03-04T09:56:54.527Z,0.70
2019-03-04T09:59:40.819Z,0.70
2019-03-04T10:02:31.660Z,0.53
2019-03-04T10:05:50.083Z,0.70
2019-03-04T10:08:53.686Z,0.70
2019-03-04T10:11:49.556Z,0.70
2019-03-04T10:15:38.864Z,0.70
2019-03-04T10:18:29.753Z,0.70
2019-03-04T10:21:41.409Z,0.50
2019-03-04T10:24:33.403Z,0.70
2019-03-04T10:27:28.048Z,0.50
2019-03-04T10:30:30.531Z,0.53
2019-03-04T10:33:42.380Z,0.80
2019-03-04T10:36:47.672Z,0.70
2019-03-04T10:40:01.644Z,0.70
2019-03-04T10:42:50.908Z,0.87
2019-03-04T10:45:56.783Z,0.63
2019-03-04T10:48:42.634Z,0.70
2019-03-04T10:51:29.067Z,0.60
2019-03-04T10:54:15.518Z,0.70
2019-03-04T10:57:01.847Z,0.80
2019-03-04T10:59:48.066Z,0.70
2019-03-04T11:02:34.555Z,0.77
2019-03-04T11:05:20.954Z,0.60
2019-03-04T11:08:07.296Z,0.80
2019-03-04T11:10:53.588Z,0.80
2019-03-04T11:13:40.047Z,0.60
2019-03-04T11:16:25.852Z,0.80
2019-03-04T11:19:11.584Z,1.20
2019-03-04T11:21:57.655Z,0.70
2019-03-04T11:24:44.112Z,0.70
2019-03-04T11:27:30.254Z,0.77
2019-03-04T11:30:17.608Z,0.80
2019-03-04T11:33:04.124Z,0.50
2019-03-04T11:35:50.422Z,0.70
2019-03-04T11:38:37.812Z,0.90
2019-03-04T11:41:24.314Z,0.70
2019-03-04T11:44:10.716Z,0.80
2019-03-04T11:46:56.963Z,0.93
2019-03-04T11:49:42.974Z,0.80
2019-03-04T11:52:29.335Z,0.63
2019-03-04T11:55:15.795Z,0.60
2019-03-04T11:58:02.103Z,0.80
2019-03-04T12:00:55.253Z,0.30
2019-03-04T12:03:41.284Z,0.63
2019-03-04T12:06:27.139Z,0.60
2019-03-04T12:09:16.450Z,0.60
2019-03-04T12:12:02.468Z,0.63
2019-03-04T12:14:48.596Z,0.40
2019-03-04T12:17:35.196Z,0.60
2019-03-04T12:20:21.342Z,0.60
2019-03-04T12:23:07.704Z,0.70
2019-03-04T12:25:53.820Z,0.70
2019-03-04T12:28:40.006Z,0.70
2019-03-04T12:31:29.712Z,0.70
2019-03-04T12:34:24.697Z,0.70
2019-03-04T12:37:09.217Z,0.80
2019-03-04T12:39:56.059Z,0.90
2019-03-04T12:42:42.192Z,0.80
2019-03-04T12:45:34.340Z,0.90
2019-03-04T12:48:16.500Z,1.00
2019-03-04T12:51:02.824Z,0.90
2019-03-04T12:53:48.694Z,0.80
2019-03-04T12:56:35.068Z,0.80
2019-03-04T12:59:21.332Z,0.90
2019-03-04T13:02:07.219Z,0.90
2019-03-04T13:04:53.423Z,0.80
2019-03-04T13:07:39.263Z,0.83
2019-03-04T13:10:25.427Z,0.80
2019-03-04T13:13:11.168Z,0.87
2019-03-04T13:15:57.911Z,0.83
2019-03-04T13:18:43.941Z,0.70
2019-03-04T13:21:30.248Z,0.80
2019-03-04T13:24:16.607Z,0.87
2019-03-04T13:27:02.388Z,0.67
2019-03-04T13:29:48.811Z,0.90
2019-03-04T13:32:35.539Z,0.73
2019-03-04T13:35:24.769Z,0.80
2019-03-04T13:38:11.783Z,0.80
2019-03-04T13:41:06.288Z,0.70
2019-03-04T13:43:52.672Z,1.00
2019-03-04T13:46:38.741Z,0.90
2019-03-04T13:49:24.908Z,0.80
2019-03-04T13:52:10.779Z,1.00
2019-03-04T13:54:57.216Z,0.90
2019-03-04T13:57:43.460Z,0.90
2019-03-04T14:00:30.128Z,0.90
2019-03-04T14:03:20.585Z,1.00
2019-03-04T14:06:06.763Z,0.97
2019-03-04T14:08:56.255Z,0.93
2019-03-04T14:11:42.091Z,0.80
2019-03-04T14:14:28.428Z,0.90
2019-03-04T14:17:14.753Z,1.10
2019-03-04T14:20:00.999Z,1.13
2019-03-04T14:22:57.368Z,1.10
2019-03-04T14:25:36.234Z,1.13
2019-03-04T14:28:22.613Z,0.97
2019-03-04T14:31:09.008Z,0.97
2019-03-04T14:33:56.494Z,0.87
2019-03-04T14:36:42.932Z,1.00
2019-03-04T14:39:29.417Z,1.00
2019-03-04T14:42:15.311Z,1.10
2019-03-04T14:45:01.151Z,1.10
2019-03-04T14:47:48.040Z,1.20
2019-03-04T14:50:34.364Z,1.00
2019-03-04T14:53:20.599Z,1.00
2019-03-04T14:56:06.852Z,0.90
2019-03-04T14:59:09.855Z,0.83
2019-03-04T15:01:41.359Z,0.90
2019-03-04T15:04:27.639Z,1.00
2019-03-04T15:07:33.631Z,0.90
2019-03-04T15:10:23.838Z,1.20
2019-03-04T15:13:10.374Z,1.07
2019-03-04T15:16:01.362Z,0.93
2019-03-04T15:18:44.492Z,1.20
2019-03-04T15:21:30.855Z,1.10
2019-03-04T15:24:17.324Z,1.00
2019-03-04T15:27:03.511Z,1.10
2019-03-04T15:29:49.824Z,1.10
2019-03-04T15:32:36.240Z,1.00
2019-03-04T15:35:22.523Z,1.00
2019-03-04T15:38:08.895Z,1.20
2019-03-04T15:40:55.159Z,0.90
2019-03-04T15:43:41.148Z,1.40
2019-03-04T15:46:27.408Z,1.30
2019-03-04T15:49:13.919Z,1.13
2019-03-04T15:51:59.989Z,1.30
2019-03-04T15:54:46.444Z,1.10
2019-03-04T15:57:32.716Z,1.20
2019-03-04T16:00:18.935Z,1.13
2019-03-04T16:03:05.714Z,1.17
2019-03-04T16:05:51.687Z,1.30
2019-03-04T16:08:38.032Z,1.40
2019-03-04T16:11:24.541Z,1.10
2019-03-04T16:14:10.512Z,1.77
2019-03-04T16:16:56.380Z,1.30
2019-03-04T16:19:42.760Z,1.60
2019-03-04T16:22:29.057Z,1.57
2019-03-04T16:25:15.452Z,1.70
2019-03-04T16:28:03.336Z,1.77
2019-03-04T16:30:50.007Z,1.40
2019-03-04T16:33:35.923Z,1.53
2019-03-04T16:36:22.190Z,1.43
2019-03-04T16:39:08.591Z,1.50
2019-03-04T16:41:54.929Z,1.70
2019-03-04T16:44:40.755Z,1.47
2019-03-04T16:47:27.104Z,1.70
2019-03-04T16:50:13.611Z,1.63
2019-03-04T16:53:00.083Z,1.90
2019-03-04T16:55:46.484Z,1.47
2019-03-04T16:58:32.539Z,1.60
2019-03-04T17:01:18.353Z,1.60
2019-03-04T17:04:04.791Z,1.73
2019-03-04T17:06:50.988Z,2.00
2019-03-04T17:09:37.292Z,2.00
2019-03-04T17:12:24.114Z,1.93
2019-03-04T17:15:11.629Z,1.90
2019-03-04T17:17:57.587Z,1.80
2019-03-04T17:20:43.561Z,1.60
2019-03-04T17:23:29.673Z,1.60
2019-03-04T17:26:15.959Z,1.70
2019-03-04T17:29:01.968Z,1.57
2019-03-04T17:31:48.232Z,1.70
2019-03-04T17:34:34.101Z,1.40
2019-03-04T17:37:20.479Z,1.47
2019-03-04T17:40:07.688Z,1.57
2019-03-04T17:42:53.851Z,1.23
2019-03-04T17:45:40.436Z,1.47
2019-03-04T17:48:26.568Z,1.23
2019-03-04T17:51:13.002Z,1.13
2019-03-04T17:53:59.116Z,1.07
2019-03-04T17:56:45.487Z,1.30
2019-03-04T17:59:31.892Z,1.40
2019-03-04T18:02:18.146Z,1.20
2019-03-04T18:05:04.680Z,1.50
2019-03-04T18:07:50.823Z,1.20
2019-03-04T18:10:37.112Z,1.20
2019-03-04T18:13:23.335Z,1.50
2019-03-04T18:16:09.314Z,1.10
2019-03-04T18:18:55.565Z,1.30
2019-03-04T18:21:41.712Z,1.03
2019-03-04T18:24:27.871Z,1.50
2019-03-04T18:27:16.136Z,1.40
2019-03-04T18:30:11.655Z,1.20
2019-03-04T18:33:05.106Z,1.20
2019-03-04T18:35:58.427Z,1.00
2019-03-04T18:38:58.500Z,1.30
2019-03-04T18:41:48.044Z,1.00
2019-03-04T18:44:52.729Z,0.93
2019-03-04T18:47:51.880Z,1.13
2019-03-04T18:50:38.267Z,1.00
2019-03-04T18:53:24.751Z,0.80
2019-03-04T18:56:10.980Z,1.30
2019-03-04T18:58:56.785Z,0.90
2019-03-04T19:01:43.287Z,0.87
2019-03-04T19:04:29.368Z,1.00
2019-03-04T19:07:15.741Z,0.70
2019-03-04T19:10:02.141Z,0.90
2019-03-04T19:12:48.381Z,0.87
2019-03-04T19:15:34.829Z,0.70
2019-03-04T19:18:21.024Z,0.63
2019-03-04T19:21:07.348Z,0.80
2019-03-04T19:23:53.657Z,0.60
2019-03-04T19:26:42.471Z,0.97
2019-03-04T19:29:28.800Z,0.70
2019-03-04T19:32:15.145Z,0.60
2019-03-04T19:35:01.786Z,0.90
2019-03-04T19:37:47.964Z,0.90
2019-03-04T19:40:34.336Z,0.80
2019-03-04T19:43:20.689Z,1.10
2019-03-04T19:46:07.093Z,1.00
2019-03-04T19:48:53.584Z,1.23
2019-03-04T19:51:39.868Z,1.40
2019-03-04T19:54:26.201Z,1.50
2019-03-04T19:57:12.532Z,1.20
2019-03-04T19:59:58.867Z,1.17
2019-03-04T20:02:45.908Z,1.10
2019-03-04T20:05:33.016Z,1.37
2019-03-04T20:08:19.057Z,1.10
2019-03-04T20:11:05.636Z,1.53
2019-03-04T20:13:51.791Z,1.40
2019-03-04T20:16:38.076Z,1.27
2019-03-04T20:19:24.504Z,1.50
2019-03-04T20:22:11.028Z,1.60
2019-03-04T20:24:57.146Z,1.30
2019-03-04T20:27:43.135Z,1.30
2019-03-04T20:30:29.340Z,1.23
2019-03-04T20:33:15.924Z,1.10
2019-03-04T20:36:02.167Z,1.17
2019-03-04T20:38:48.733Z,1.00
2019-03-04T20:41:36.298Z,1.23
2019-03-04T20:44:22.768Z,0.90
2019-03-04T20:47:09.129Z,1.00
2019-03-04T20:49:54.964Z,1.07
2019-03-04T20:52:41.419Z,0.90
2019-03-04T20:55:27.392Z,0.73
2019-03-04T20:58:13.675Z,1.00
2019-03-04T21:01:00.175Z,1.00
2019-03-04T21:03:46.500Z,0.87
2019-03-04T21:06:32.998Z,0.80
2019-03-04T21:09:19.708Z,0.97
2019-03-04T21:12:06.173Z,0.80
2019-03-04T21:14:52.588Z,0.90
2019-03-04T21:17:39.192Z,0.90
2019-03-04T21:20:25.359Z,0.70
2019-03-04T21:23:11.839Z,0.80
2019-03-04T21:26:04.936Z,0.80
2019-03-04T21:29:34.683Z,0.80
2019-03-04T21:32:28.443Z,0.90
2019-03-04T21:36:04.836Z,0.70
2019-03-04T21:38:54.136Z,0.67
2019-03-04T21:41:56.956Z,0.70
2019-03-04T21:45:31.113Z,0.70
2019-03-04T21:48:32.324Z,0.70
2019-03-04T21:51:43.147Z,0.90
2019-03-04T21:54:29.145Z,0.70
2019-03-04T21:57:37.915Z,0.80
2019-03-04T22:00:34.105Z,0.90
2019-03-04T22:03:23.040Z,0.90
2019-03-04T22:06:10.695Z,1.20
2019-03-04T22:08:57.100Z,1.30
2019-03-04T22:11:43.380Z,1.20
2019-03-04T22:14:29.806Z,1.03
2019-03-04T22:17:16.378Z,1.63
2019-03-04T22:20:03.038Z,1.50
2019-03-04T22:22:50.167Z,1.40
2019-03-04T22:25:36.192Z,1.80
2019-03-04T22:28:22.451Z,1.63
2019-03-04T22:31:09.076Z,1.87
2019-03-04T22:33:55.239Z,1.70
2019-03-04T22:36:41.554Z,1.77
2019-03-04T22:39:28.026Z,1.50
2019-03-04T22:42:14.456Z,1.60
2019-03-04T22:45:00.784Z,1.40
2019-03-04T22:47:48.080Z,1.57
2019-03-04T22:50:34.375Z,1.80
2019-03-04T22:53:20.645Z,1.87
2019-03-04T22:56:07.094Z,1.73
2019-03-04T22:58:53.413Z,2.03
2019-03-04T23:02:04.906Z,1.80
2019-03-04T23:04:55.189Z,1.97
2019-03-04T23:07:53.044Z,1.87
2019-03-04T23:10:45.092Z,2.10
2019-03-04T23:13:40.580Z,2.77
2019-03-04T23:16:29.733Z,2.90
2019-03-04T23:19:15.926Z,3.40
2019-03-04T23:22:05.243Z,3.43
2019-03-04T23:24:51.592Z,3.73
2019-03-04T23:27:38.175Z,3.20
2019-03-04T23:30:24.510Z,3.70
2019-03-04T23:33:10.700Z,3.90
2019-03-04T23:35:57.176Z,4.70
2019-03-04T23:38:43.415Z,4.77
2019-03-04T23:41:29.847Z,5.17
2019-03-04T23:44:16.462Z,5.47
2019-03-04T23:47:02.704Z,6.27
2019-03-04T23:50:14.844Z,6.00
2019-03-04T23:53:01.111Z,5.53
2019-03-04T23:55:47.713Z,6.00
2019-03-04T23:58:34.132Z,6.13
